sensor_id;sensor_type;location;lat;lon;timestamp;temperature;humidity
212;DHT22;16228;48.800;9.002;2023-02-28T00:01:13;-1.70;96.90
212;DHT22;16228;48.800;9.002;2023-02-28T00:03:40;-1.80;96.90
212;DHT22;16228;48.800;9.002;2023-02-28T00:06:08;-1.80;96.90
212;DHT22;16228;48.800;9.002;2023-02-28T00:09:01;-1.80;96.90
212;DHT22;16228;48.800;9.002;2023-02-28T00:12:08;-1.80;96.90
212;DHT22;16228;48.800;9.002;2023-02-28T00:14:36;-1.90;96.90
212;DHT22;16228;48.800;9.002;2023-02-28T00:17:03;-1.90;96.90
212;DHT22;16228;48.800;9.002;2023-02-28T00:19:30;-1.90;96.90
212;DHT22;16228;48.800;9.002;2023-02-28T00:21:57;-1.90;96.90
212;DHT22;16228;48.800;9.002;2023-02-28T00:24:24;-1.90;96.90
212;DHT22;16228;48.800;9.002;2023-02-28T00:26:51;-1.90;96.90
212;DHT22;16228;48.800;9.002;2023-02-28T00:29:20;-1.90;96.90
212;DHT22;16228;48.800;9.002;2023-02-28T00:31:47;-2.00;96.90
212;DHT22;16228;48.800;9.002;2023-02-28T00:34:14;-2.00;96.90
212;DHT22;16228;48.800;9.002;2023-02-28T00:36:41;-2.00;96.90
212;DHT22;16228;48.800;9.002;2023-02-28T00:39:11;-2.00;96.90
212;DHT22;16228;48.800;9.002;2023-02-28T00:41:38;-2.00;96.90
212;DHT22;16228;48.800;9.002;2023-02-28T00:44:05;-2.10;96.90
212;DHT22;16228;48.800;9.002;2023-02-28T00:46:34;-2.10;96.90
212;DHT22;16228;48.800;9.002;2023-02-28T00:49:01;-2.10;96.90
212;DHT22;16228;48.800;9.002;2023-02-28T00:51:28;-2.10;96.90
212;DHT22;16228;48.800;9.002;2023-02-28T00:53:55;-2.10;96.90
212;DHT22;16228;48.800;9.002;2023-02-28T00:56:23;-2.10;96.90
212;DHT22;16228;48.800;9.002;2023-02-28T00:58:50;-2.10;96.90
212;DHT22;16228;48.800;9.002;2023-02-28T01:01:17;-2.10;96.90
212;DHT22;16228;48.800;9.002;2023-02-28T01:03:45;-2.10;96.90
212;DHT22;16228;48.800;9.002;2023-02-28T01:06:12;-2.10;96.90
212;DHT22;16228;48.800;9.002;2023-02-28T01:08:40;-2.10;96.90
212;DHT22;16228;48.800;9.002;2023-02-28T01:11:08;-2.10;96.90
212;DHT22;16228;48.800;9.002;2023-02-28T01:13:36;-2.10;96.90
212;DHT22;16228;48.800;9.002;2023-02-28T01:16:03;-2.10;96.90
212;DHT22;16228;48.800;9.002;2023-02-28T01:18:30;-2.10;96.90
212;DHT22;16228;48.800;9.002;2023-02-28T01:21:03;-2.10;96.90
212;DHT22;16228;48.800;9.002;2023-02-28T01:23:30;-2.10;96.90
212;DHT22;16228;48.800;9.002;2023-02-28T01:26:04;-2.10;96.90
212;DHT22;16228;48.800;9.002;2023-02-28T01:28:32;-2.10;96.90
212;DHT22;16228;48.800;9.002;2023-02-28T01:30:59;-2.10;96.90
212;DHT22;16228;48.800;9.002;2023-02-28T01:33:26;-2.10;96.90
212;DHT22;16228;48.800;9.002;2023-02-28T01:35:59;-2.10;96.90
212;DHT22;16228;48.800;9.002;2023-02-28T01:38:27;-2.10;96.90
212;DHT22;16228;48.800;9.002;2023-02-28T01:40:54;-2.10;96.90
212;DHT22;16228;48.800;9.002;2023-02-28T01:43:24;-2.20;96.90
212;DHT22;16228;48.800;9.002;2023-02-28T01:45:51;-2.20;96.90
212;DHT22;16228;48.800;9.002;2023-02-28T01:48:20;-2.10;96.90
212;DHT22;16228;48.800;9.002;2023-02-28T01:50:49;-2.10;96.90
212;DHT22;16228;48.800;9.002;2023-02-28T01:53:21;-2.20;96.90
212;DHT22;16228;48.800;9.002;2023-02-28T01:55:51;-2.20;96.90
212;DHT22;16228;48.800;9.002;2023-02-28T01:58:19;-2.20;96.90
212;DHT22;16228;48.800;9.002;2023-02-28T02:00:47;-2.20;96.90
212;DHT22;16228;48.800;9.002;2023-02-28T02:03:16;-2.20;96.90
212;DHT22;16228;48.800;9.002;2023-02-28T02:05:44;-2.20;96.90
212;DHT22;16228;48.800;9.002;2023-02-28T02:08:16;-2.20;96.90
212;DHT22;16228;48.800;9.002;2023-02-28T02:10:47;-2.20;96.90
212;DHT22;16228;48.800;9.002;2023-02-28T02:13:37;-2.20;96.90
212;DHT22;16228;48.800;9.002;2023-02-28T02:16:17;-2.20;96.90
212;DHT22;16228;48.800;9.002;2023-02-28T02:18:52;-2.20;96.90
212;DHT22;16228;48.800;9.002;2023-02-28T02:21:52;-2.20;96.90
212;DHT22;16228;48.800;9.002;2023-02-28T02:24:42;-2.20;96.90
212;DHT22;16228;48.800;9.002;2023-02-28T02:27:25;-2.20;96.90
212;DHT22;16228;48.800;9.002;2023-02-28T02:30:21;-2.20;96.90
212;DHT22;16228;48.800;9.002;2023-02-28T02:33:09;-2.20;96.90
212;DHT22;16228;48.800;9.002;2023-02-28T02:35:43;-2.20;96.90
212;DHT22;16228;48.800;9.002;2023-02-28T02:38:23;-2.20;96.90
212;DHT22;16228;48.800;9.002;2023-02-28T02:40:58;-2.20;96.90
212;DHT22;16228;48.800;9.002;2023-02-28T02:43:31;-2.20;96.90
212;DHT22;16228;48.800;9.002;2023-02-28T02:46:02;-2.20;96.90
212;DHT22;16228;48.800;9.002;2023-02-28T02:48:34;-2.10;96.90
212;DHT22;16228;48.800;9.002;2023-02-28T02:51:07;-2.10;96.90
212;DHT22;16228;48.800;9.002;2023-02-28T02:53:42;-2.10;96.90
212;DHT22;16228;48.800;9.002;2023-02-28T02:56:12;-2.10;96.90
212;DHT22;16228;48.800;9.002;2023-02-28T02:58:42;-2.10;96.90
212;DHT22;16228;48.800;9.002;2023-02-28T03:01:13;-2.10;96.90
212;DHT22;16228;48.800;9.002;2023-02-28T03:03:43;-2.10;96.90
212;DHT22;16228;48.800;9.002;2023-02-28T03:06:15;-2.10;96.90
212;DHT22;16228;48.800;9.002;2023-02-28T03:08:42;-2.10;96.90
212;DHT22;16228;48.800;9.002;2023-02-28T03:11:13;-2.10;96.90
212;DHT22;16228;48.800;9.002;2023-02-28T03:14:05;-2.10;96.90
212;DHT22;16228;48.800;9.002;2023-02-28T03:16:43;-2.00;96.90
212;DHT22;16228;48.800;9.002;2023-02-28T03:19:33;-2.00;96.90
212;DHT22;16228;48.800;9.002;2023-02-28T03:22:14;-1.90;96.90
212;DHT22;16228;48.800;9.002;2023-02-28T03:24:48;-2.00;96.90
212;DHT22;16228;48.800;9.002;2023-02-28T03:27:21;-2.00;96.90
212;DHT22;16228;48.800;9.002;2023-02-28T03:29:54;-1.90;96.90
212;DHT22;16228;48.800;9.002;2023-02-28T03:32:26;-1.90;96.90
212;DHT22;16228;48.800;9.002;2023-02-28T03:34:58;-1.90;96.90
212;DHT22;16228;48.800;9.002;2023-02-28T03:37:31;-1.90;96.90
212;DHT22;16228;48.800;9.002;2023-02-28T03:40:06;-1.80;96.90
212;DHT22;16228;48.800;9.002;2023-02-28T03:42:38;-1.80;96.90
212;DHT22;16228;48.800;9.002;2023-02-28T03:45:11;-1.80;96.90
212;DHT22;16228;48.800;9.002;2023-02-28T03:47:43;-1.80;96.90
212;DHT22;16228;48.800;9.002;2023-02-28T03:50:16;-1.80;96.90
212;DHT22;16228;48.800;9.002;2023-02-28T03:52:49;-1.80;96.90
212;DHT22;16228;48.800;9.002;2023-02-28T03:55:18;-1.80;96.90
212;DHT22;16228;48.800;9.002;2023-02-28T03:57:53;-1.80;96.90
212;DHT22;16228;48.800;9.002;2023-02-28T04:00:27;-1.80;96.90
212;DHT22;16228;48.800;9.002;2023-02-28T04:02:55;-1.70;96.90
212;DHT22;16228;48.800;9.002;2023-02-28T04:05:23;-1.70;96.90
212;DHT22;16228;48.800;9.002;2023-02-28T04:07:52;-1.60;96.90
212;DHT22;16228;48.800;9.002;2023-02-28T04:10:20;-1.60;96.90
212;DHT22;16228;48.800;9.002;2023-02-28T04:12:47;-1.60;96.90
212;DHT22;16228;48.800;9.002;2023-02-28T04:15:14;-1.50;96.90
212;DHT22;16228;48.800;9.002;2023-02-28T04:17:41;-1.50;96.90
212;DHT22;16228;48.800;9.002;2023-02-28T04:20:10;-1.50;96.90
212;DHT22;16228;48.800;9.002;2023-02-28T04:22:37;-1.50;96.90
212;DHT22;16228;48.800;9.002;2023-02-28T04:25:07;-1.50;96.90
212;DHT22;16228;48.800;9.002;2023-02-28T04:27:34;-1.50;96.90
212;DHT22;16228;48.800;9.002;2023-02-28T04:30:02;-1.50;96.90
212;DHT22;16228;48.800;9.002;2023-02-28T04:32:29;-1.50;96.90
212;DHT22;16228;48.800;9.002;2023-02-28T04:34:56;-1.50;96.90
212;DHT22;16228;48.800;9.002;2023-02-28T04:37:23;-1.50;96.90
212;DHT22;16228;48.800;9.002;2023-02-28T04:39:54;-1.50;96.90
212;DHT22;16228;48.800;9.002;2023-02-28T04:42:23;-1.50;96.90
212;DHT22;16228;48.800;9.002;2023-02-28T04:44:50;-1.40;96.90
212;DHT22;16228;48.800;9.002;2023-02-28T04:47:17;-1.40;96.90
212;DHT22;16228;48.800;9.002;2023-02-28T04:49:44;-1.30;96.90
212;DHT22;16228;48.800;9.002;2023-02-28T04:52:11;-1.30;96.90
212;DHT22;16228;48.800;9.002;2023-02-28T04:54:39;-1.30;96.90
212;DHT22;16228;48.800;9.002;2023-02-28T04:57:06;-1.30;96.90
212;DHT22;16228;48.800;9.002;2023-02-28T04:59:34;-1.20;96.90
212;DHT22;16228;48.800;9.002;2023-02-28T05:02:02;-1.20;96.90
212;DHT22;16228;48.800;9.002;2023-02-28T05:04:32;-1.30;96.90
212;DHT22;16228;48.800;9.002;2023-02-28T05:07:00;-1.20;96.90
212;DHT22;16228;48.800;9.002;2023-02-28T05:09:27;-1.20;96.90
212;DHT22;16228;48.800;9.002;2023-02-28T05:11:55;-1.20;96.90
212;DHT22;16228;48.800;9.002;2023-02-28T05:14:22;-1.20;96.90
212;DHT22;16228;48.800;9.002;2023-02-28T05:16:54;-1.20;96.90
212;DHT22;16228;48.800;9.002;2023-02-28T05:19:21;-1.20;96.90
212;DHT22;16228;48.800;9.002;2023-02-28T05:21:51;-1.10;96.90
212;DHT22;16228;48.800;9.002;2023-02-28T05:24:19;-1.10;96.90
212;DHT22;16228;48.800;9.002;2023-02-28T05:26:49;-1.00;96.90
212;DHT22;16228;48.800;9.002;2023-02-28T05:29:18;-1.00;96.90
212;DHT22;16228;48.800;9.002;2023-02-28T05:31:46;-1.10;96.90
212;DHT22;16228;48.800;9.002;2023-02-28T05:34:14;-1.10;96.90
212;DHT22;16228;48.800;9.002;2023-02-28T05:36:42;-1.10;96.90
212;DHT22;16228;48.800;9.002;2023-02-28T05:39:09;-1.00;96.90
212;DHT22;16228;48.800;9.002;2023-02-28T05:41:40;-1.00;96.90
212;DHT22;16228;48.800;9.002;2023-02-28T05:44:07;-1.00;96.90
212;DHT22;16228;48.800;9.002;2023-02-28T05:46:34;-1.00;96.90
212;DHT22;16228;48.800;9.002;2023-02-28T05:49:02;-1.00;96.90
212;DHT22;16228;48.800;9.002;2023-02-28T05:51:30;-1.00;96.90
212;DHT22;16228;48.800;9.002;2023-02-28T05:54:01;-1.00;96.90
212;DHT22;16228;48.800;9.002;2023-02-28T05:56:29;-1.00;96.90
212;DHT22;16228;48.800;9.002;2023-02-28T05:58:56;-1.00;96.90
212;DHT22;16228;48.800;9.002;2023-02-28T06:01:30;-1.00;96.90
212;DHT22;16228;48.800;9.002;2023-02-28T06:03:58;-1.00;96.90
212;DHT22;16228;48.800;9.002;2023-02-28T06:06:26;-1.00;96.90
212;DHT22;16228;48.800;9.002;2023-02-28T06:08:55;-1.00;96.90
212;DHT22;16228;48.800;9.002;2023-02-28T06:11:22;-1.00;96.90
212;DHT22;16228;48.800;9.002;2023-02-28T06:13:53;-0.90;96.90
212;DHT22;16228;48.800;9.002;2023-02-28T06:16:21;-0.90;96.90
212;DHT22;16228;48.800;9.002;2023-02-28T06:18:48;-0.90;96.90
212;DHT22;16228;48.800;9.002;2023-02-28T06:21:15;-0.90;96.90
212;DHT22;16228;48.800;9.002;2023-02-28T06:23:42;-0.90;96.90
212;DHT22;16228;48.800;9.002;2023-02-28T06:26:11;-0.90;96.90
212;DHT22;16228;48.800;9.002;2023-02-28T06:28:38;-0.90;96.90
212;DHT22;16228;48.800;9.002;2023-02-28T06:31:07;-0.90;96.90
212;DHT22;16228;48.800;9.002;2023-02-28T06:33:34;-0.90;96.90
212;DHT22;16228;48.800;9.002;2023-02-28T06:36:01;-0.90;96.90
212;DHT22;16228;48.800;9.002;2023-02-28T06:38:29;-0.90;96.90
212;DHT22;16228;48.800;9.002;2023-02-28T06:40:57;-0.90;96.90
212;DHT22;16228;48.800;9.002;2023-02-28T06:43:28;-0.80;96.90
212;DHT22;16228;48.800;9.002;2023-02-28T06:45:56;-0.90;96.90
212;DHT22;16228;48.800;9.002;2023-02-28T06:48:24;-0.90;96.90
212;DHT22;16228;48.800;9.002;2023-02-28T06:51:00;-0.90;96.90
212;DHT22;16228;48.800;9.002;2023-02-28T06:53:27;-0.80;96.90
212;DHT22;16228;48.800;9.002;2023-02-28T06:55:54;-0.80;96.90
212;DHT22;16228;48.800;9.002;2023-02-28T06:58:22;-0.80;96.90
212;DHT22;16228;48.800;9.002;2023-02-28T07:00:52;-0.80;96.90
212;DHT22;16228;48.800;9.002;2023-02-28T07:03:19;-0.80;96.90
212;DHT22;16228;48.800;9.002;2023-02-28T07:05:47;-0.70;96.90
212;DHT22;16228;48.800;9.002;2023-02-28T07:08:14;-0.70;96.90
212;DHT22;16228;48.800;9.002;2023-02-28T07:10:41;-0.80;96.90
212;DHT22;16228;48.800;9.002;2023-02-28T07:13:09;-0.70;96.90
212;DHT22;16228;48.800;9.002;2023-02-28T07:15:37;-0.70;96.90
212;DHT22;16228;48.800;9.002;2023-02-28T07:18:05;-0.60;96.90
212;DHT22;16228;48.800;9.002;2023-02-28T07:20:32;-0.60;96.90
212;DHT22;16228;48.800;9.002;2023-02-28T07:22:59;-0.70;96.90
212;DHT22;16228;48.800;9.002;2023-02-28T07:25:28;-0.60;96.90
212;DHT22;16228;48.800;9.002;2023-02-28T07:27:56;-0.50;96.90
212;DHT22;16228;48.800;9.002;2023-02-28T07:30:24;-0.50;96.90
212;DHT22;16228;48.800;9.002;2023-02-28T07:32:52;-0.40;96.90
212;DHT22;16228;48.800;9.002;2023-02-28T07:35:21;-0.30;96.90
212;DHT22;16228;48.800;9.002;2023-02-28T07:37:49;-0.40;96.90
212;DHT22;16228;48.800;9.002;2023-02-28T07:40:16;-0.40;96.90
212;DHT22;16228;48.800;9.002;2023-02-28T07:42:44;-0.40;96.90
212;DHT22;16228;48.800;9.002;2023-02-28T07:45:11;-0.30;96.90
212;DHT22;16228;48.800;9.002;2023-02-28T07:47:38;-0.30;96.90
212;DHT22;16228;48.800;9.002;2023-02-28T07:50:08;-0.20;96.90
212;DHT22;16228;48.800;9.002;2023-02-28T07:52:38;-0.20;96.90
212;DHT22;16228;48.800;9.002;2023-02-28T07:55:07;-0.30;96.90
212;DHT22;16228;48.800;9.002;2023-02-28T07:57:35;-0.30;96.90
212;DHT22;16228;48.800;9.002;2023-02-28T08:00:03;-0.30;96.90
212;DHT22;16228;48.800;9.002;2023-02-28T08:02:30;-0.20;96.90
212;DHT22;16228;48.800;9.002;2023-02-28T08:04:57;-0.20;96.90
212;DHT22;16228;48.800;9.002;2023-02-28T08:07:24;-0.20;96.90
212;DHT22;16228;48.800;9.002;2023-02-28T08:09:54;-0.20;96.90
212;DHT22;16228;48.800;9.002;2023-02-28T08:12:21;-0.30;96.90
212;DHT22;16228;48.800;9.002;2023-02-28T08:14:48;-0.30;96.90
212;DHT22;16228;48.800;9.002;2023-02-28T08:17:15;-0.30;96.90
212;DHT22;16228;48.800;9.002;2023-02-28T08:19:45;-0.20;96.90
212;DHT22;16228;48.800;9.002;2023-02-28T08:22:12;-0.10;96.90
212;DHT22;16228;48.800;9.002;2023-02-28T08:24:41;-0.10;96.90
212;DHT22;16228;48.800;9.002;2023-02-28T08:27:10;0.00;96.90
212;DHT22;16228;48.800;9.002;2023-02-28T08:29:37;0.00;96.90
212;DHT22;16228;48.800;9.002;2023-02-28T08:32:05;0.00;96.90
212;DHT22;16228;48.800;9.002;2023-02-28T08:34:32;-0.10;96.90
212;DHT22;16228;48.800;9.002;2023-02-28T08:36:59;-0.10;96.90
212;DHT22;16228;48.800;9.002;2023-02-28T08:39:26;0.00;96.90
212;DHT22;16228;48.800;9.002;2023-02-28T08:41:54;0.10;96.90
212;DHT22;16228;48.800;9.002;2023-02-28T08:44:22;0.10;96.90
212;DHT22;16228;48.800;9.002;2023-02-28T08:46:49;0.10;96.90
212;DHT22;16228;48.800;9.002;2023-02-28T08:49:16;0.10;96.90
212;DHT22;16228;48.800;9.002;2023-02-28T08:51:44;0.20;96.90
212;DHT22;16228;48.800;9.002;2023-02-28T08:54:11;0.20;96.90
212;DHT22;16228;48.800;9.002;2023-02-28T08:56:40;0.20;96.90
212;DHT22;16228;48.800;9.002;2023-02-28T08:59:09;0.20;96.90
212;DHT22;16228;48.800;9.002;2023-02-28T09:01:37;0.20;96.90
212;DHT22;16228;48.800;9.002;2023-02-28T09:04:07;0.20;96.90
212;DHT22;16228;48.800;9.002;2023-02-28T09:06:36;0.20;96.90
212;DHT22;16228;48.800;9.002;2023-02-28T09:09:04;0.20;96.90
212;DHT22;16228;48.800;9.002;2023-02-28T09:11:33;0.30;96.90
212;DHT22;16228;48.800;9.002;2023-02-28T09:14:01;0.30;96.90
212;DHT22;16228;48.800;9.002;2023-02-28T09:16:30;0.30;96.90
212;DHT22;16228;48.800;9.002;2023-02-28T09:18:59;0.40;96.90
212;DHT22;16228;48.800;9.002;2023-02-28T09:21:26;0.50;96.90
212;DHT22;16228;48.800;9.002;2023-02-28T09:23:54;0.50;96.90
212;DHT22;16228;48.800;9.002;2023-02-28T09:26:23;0.50;96.90
212;DHT22;16228;48.800;9.002;2023-02-28T09:28:51;0.70;96.90
212;DHT22;16228;48.800;9.002;2023-02-28T09:31:21;0.80;96.90
212;DHT22;16228;48.800;9.002;2023-02-28T09:33:49;0.90;96.90
212;DHT22;16228;48.800;9.002;2023-02-28T09:36:18;1.00;96.90
212;DHT22;16228;48.800;9.002;2023-02-28T09:38:45;1.10;96.90
212;DHT22;16228;48.800;9.002;2023-02-28T09:41:14;1.20;96.90
212;DHT22;16228;48.800;9.002;2023-02-28T09:43:45;1.30;96.90
212;DHT22;16228;48.800;9.002;2023-02-28T09:46:24;1.40;96.90
212;DHT22;16228;48.800;9.002;2023-02-28T09:48:52;1.50;96.90
212;DHT22;16228;48.800;9.002;2023-02-28T09:51:34;1.50;96.90
212;DHT22;16228;48.800;9.002;2023-02-28T09:54:05;1.60;96.90
212;DHT22;16228;48.800;9.002;2023-02-28T09:56:36;1.50;96.90
212;DHT22;16228;48.800;9.002;2023-02-28T09:59:11;1.50;96.90
212;DHT22;16228;48.800;9.002;2023-02-28T10:01:50;1.60;96.90
212;DHT22;16228;48.800;9.002;2023-02-28T10:04:36;1.70;96.90
212;DHT22;16228;48.800;9.002;2023-02-28T10:07:36;1.90;96.90
212;DHT22;16228;48.800;9.002;2023-02-28T10:10:35;2.10;96.90
212;DHT22;16228;48.800;9.002;2023-02-28T10:13:20;2.20;96.90
212;DHT22;16228;48.800;9.002;2023-02-28T10:15:53;2.20;96.90
212;DHT22;16228;48.800;9.002;2023-02-28T10:18:26;2.10;96.90
212;DHT22;16228;48.800;9.002;2023-02-28T10:20:54;2.10;96.90
212;DHT22;16228;48.800;9.002;2023-02-28T10:23:27;2.10;96.90
212;DHT22;16228;48.800;9.002;2023-02-28T10:25:58;2.10;96.90
212;DHT22;16228;48.800;9.002;2023-02-28T10:28:26;2.20;96.90
212;DHT22;16228;48.800;9.002;2023-02-28T10:30:57;2.20;96.90
212;DHT22;16228;48.800;9.002;2023-02-28T10:33:28;2.40;96.90
212;DHT22;16228;48.800;9.002;2023-02-28T10:35:56;2.40;96.90
212;DHT22;16228;48.800;9.002;2023-02-28T10:38:31;2.60;96.90
212;DHT22;16228;48.800;9.002;2023-02-28T10:41:06;2.70;96.90
212;DHT22;16228;48.800;9.002;2023-02-28T10:43:37;2.80;96.50
212;DHT22;16228;48.800;9.002;2023-02-28T10:46:13;3.00;95.60
212;DHT22;16228;48.800;9.002;2023-02-28T10:49:02;2.90;95.50
212;DHT22;16228;48.800;9.002;2023-02-28T10:51:36;3.10;96.30
212;DHT22;16228;48.800;9.002;2023-02-28T10:54:06;3.30;95.20
212;DHT22;16228;48.800;9.002;2023-02-28T10:56:41;3.60;94.20
212;DHT22;16228;48.800;9.002;2023-02-28T10:59:26;3.70;94.10
212;DHT22;16228;48.800;9.002;2023-02-28T11:01:54;3.70;93.30
212;DHT22;16228;48.800;9.002;2023-02-28T11:04:33;3.60;92.80
212;DHT22;16228;48.800;9.002;2023-02-28T11:07:03;3.50;93.00
212;DHT22;16228;48.800;9.002;2023-02-28T11:09:34;3.60;94.00
212;DHT22;16228;48.800;9.002;2023-02-28T11:12:05;3.70;93.60
212;DHT22;16228;48.800;9.002;2023-02-28T11:14:46;4.00;93.40
212;DHT22;16228;48.800;9.002;2023-02-28T11:17:19;4.50;91.80
212;DHT22;16228;48.800;9.002;2023-02-28T11:19:49;5.00;90.50
212;DHT22;16228;48.800;9.002;2023-02-28T11:22:20;5.20;90.00
212;DHT22;16228;48.800;9.002;2023-02-28T11:24:51;6.00;89.70
212;DHT22;16228;48.800;9.002;2023-02-28T11:27:47;7.60;87.60
212;DHT22;16228;48.800;9.002;2023-02-28T11:30:31;9.50;81.70
212;DHT22;16228;48.800;9.002;2023-02-28T11:32:59;9.80;77.70
212;DHT22;16228;48.800;9.002;2023-02-28T11:35:29;9.50;78.20
212;DHT22;16228;48.800;9.002;2023-02-28T11:37:58;9.30;77.50
212;DHT22;16228;48.800;9.002;2023-02-28T11:40:35;9.00;79.10
212;DHT22;16228;48.800;9.002;2023-02-28T11:43:20;9.70;77.70
212;DHT22;16228;48.800;9.002;2023-02-28T11:46:03;10.30;76.00
212;DHT22;16228;48.800;9.002;2023-02-28T11:48:40;9.50;75.50
212;DHT22;16228;48.800;9.002;2023-02-28T11:51:17;8.70;77.70
212;DHT22;16228;48.800;9.002;2023-02-28T11:53:56;8.50;79.00
212;DHT22;16228;48.800;9.002;2023-02-28T11:56:31;7.80;80.20
212;DHT22;16228;48.800;9.002;2023-02-28T11:59:14;7.80;82.70
212;DHT22;16228;48.800;9.002;2023-02-28T12:04:51;9.10;81.10
212;DHT22;16228;48.800;9.002;2023-02-28T12:07:28;10.10;77.50
212;DHT22;16228;48.800;9.002;2023-02-28T12:10:04;9.80;76.50
212;DHT22;16228;48.800;9.002;2023-02-28T12:12:44;9.40;77.00
212;DHT22;16228;48.800;9.002;2023-02-28T12:15:28;8.60;78.80
212;DHT22;16228;48.800;9.002;2023-02-28T12:18:10;7.90;80.10
212;DHT22;16228;48.800;9.002;2023-02-28T12:20:46;8.50;80.80
212;DHT22;16228;48.800;9.002;2023-02-28T12:23:25;9.50;79.70
212;DHT22;16228;48.800;9.002;2023-02-28T12:26:03;9.60;77.30
212;DHT22;16228;48.800;9.002;2023-02-28T12:28:41;10.50;77.20
212;DHT22;16228;48.800;9.002;2023-02-28T12:31:15;11.70;74.90
212;DHT22;16228;48.800;9.002;2023-02-28T12:33:45;12.50;71.80
212;DHT22;16228;48.800;9.002;2023-02-28T12:36:17;11.60;71.30
212;DHT22;16228;48.800;9.002;2023-02-28T12:38:50;11.30;73.00
212;DHT22;16228;48.800;9.002;2023-02-28T12:41:20;11.20;73.00
212;DHT22;16228;48.800;9.002;2023-02-28T12:43:56;11.20;73.90
212;DHT22;16228;48.800;9.002;2023-02-28T12:46:29;12.20;72.40
212;DHT22;16228;48.800;9.002;2023-02-28T12:48:58;13.00;70.80
212;DHT22;16228;48.800;9.002;2023-02-28T12:51:26;13.30;69.70
212;DHT22;16228;48.800;9.002;2023-02-28T12:54:00;13.30;67.90
212;DHT22;16228;48.800;9.002;2023-02-28T12:56:35;13.20;68.30
212;DHT22;16228;48.800;9.002;2023-02-28T12:59:13;13.00;68.50
212;DHT22;16228;48.800;9.002;2023-02-28T13:05:32;12.60;68.10
212;DHT22;16228;48.800;9.002;2023-02-28T13:08:34;11.40;70.40
212;DHT22;16228;48.800;9.002;2023-02-28T13:11:06;11.70;71.40
212;DHT22;16228;48.800;9.002;2023-02-28T13:13:34;11.90;70.00
212;DHT22;16228;48.800;9.002;2023-02-28T13:16:08;12.10;70.40
212;DHT22;16228;48.800;9.002;2023-02-28T13:18:37;12.60;70.20
212;DHT22;16228;48.800;9.002;2023-02-28T13:21:06;12.60;69.10
212;DHT22;16228;48.800;9.002;2023-02-28T13:23:40;12.00;68.90
212;DHT22;16228;48.800;9.002;2023-02-28T13:26:08;11.00;70.40
212;DHT22;16228;48.800;9.002;2023-02-28T13:29:20;10.10;72.00
212;DHT22;16228;48.800;9.002;2023-02-28T13:38:13;9.60;75.50
212;DHT22;16228;48.800;9.002;2023-02-28T13:40:42;10.50;73.60
212;DHT22;16228;48.800;9.002;2023-02-28T13:43:09;10.50;72.90
212;DHT22;16228;48.800;9.002;2023-02-28T13:45:37;10.70;72.50
212;DHT22;16228;48.800;9.002;2023-02-28T13:48:16;10.50;73.10
212;DHT22;16228;48.800;9.002;2023-02-28T13:50:44;10.80;72.70
212;DHT22;16228;48.800;9.002;2023-02-28T13:53:36;11.00;71.00
212;DHT22;16228;48.800;9.002;2023-02-28T13:56:18;11.30;72.00
212;DHT22;16228;48.800;9.002;2023-02-28T13:58:53;11.80;71.50
212;DHT22;16228;48.800;9.002;2023-02-28T14:01:34;11.70;69.90
212;DHT22;16228;48.800;9.002;2023-02-28T14:04:40;11.30;70.70
212;DHT22;16228;48.800;9.002;2023-02-28T14:07:17;11.70;69.90
212;DHT22;16228;48.800;9.002;2023-02-28T14:09:51;11.80;70.40
212;DHT22;16228;48.800;9.002;2023-02-28T14:12:57;11.10;71.50
212;DHT22;16228;48.800;9.002;2023-02-28T14:18:30;10.80;72.30
212;DHT22;16228;48.800;9.002;2023-02-28T14:21:02;10.60;73.30
212;DHT22;16228;48.800;9.002;2023-02-28T14:26:46;11.00;72.20
212;DHT22;16228;48.800;9.002;2023-02-28T14:29:30;11.20;71.80
212;DHT22;16228;48.800;9.002;2023-02-28T14:32:02;10.80;72.20
212;DHT22;16228;48.800;9.002;2023-02-28T14:34:40;10.80;73.10
212;DHT22;16228;48.800;9.002;2023-02-28T14:37:14;10.40;72.80
212;DHT22;16228;48.800;9.002;2023-02-28T14:39:43;10.10;73.50
212;DHT22;16228;48.800;9.002;2023-02-28T14:42:31;10.00;73.80
212;DHT22;16228;48.800;9.002;2023-02-28T14:45:00;9.60;74.20
212;DHT22;16228;48.800;9.002;2023-02-28T14:47:28;8.80;76.10
212;DHT22;16228;48.800;9.002;2023-02-28T14:49:58;8.20;77.10
212;DHT22;16228;48.800;9.002;2023-02-28T14:52:27;7.70;79.50
212;DHT22;16228;48.800;9.002;2023-02-28T14:54:58;7.40;80.60
212;DHT22;16228;48.800;9.002;2023-02-28T14:57:27;6.90;81.10
212;DHT22;16228;48.800;9.002;2023-02-28T15:00:00;6.80;82.40
212;DHT22;16228;48.800;9.002;2023-02-28T15:02:31;6.40;83.10
212;DHT22;16228;48.800;9.002;2023-02-28T15:05:02;6.40;84.00
212;DHT22;16228;48.800;9.002;2023-02-28T15:07:37;6.40;83.70
212;DHT22;16228;48.800;9.002;2023-02-28T15:10:18;6.20;83.80
212;DHT22;16228;48.800;9.002;2023-02-28T15:12:51;6.10;84.20
212;DHT22;16228;48.800;9.002;2023-02-28T15:15:21;6.10;84.80
212;DHT22;16228;48.800;9.002;2023-02-28T15:17:51;6.00;84.60
212;DHT22;16228;48.800;9.002;2023-02-28T15:20:22;6.10;85.90
212;DHT22;16228;48.800;9.002;2023-02-28T15:22:51;6.00;84.90
212;DHT22;16228;48.800;9.002;2023-02-28T15:25:21;5.90;85.30
212;DHT22;16228;48.800;9.002;2023-02-28T15:27:50;5.90;85.70
212;DHT22;16228;48.800;9.002;2023-02-28T15:30:22;5.80;86.00
212;DHT22;16228;48.800;9.002;2023-02-28T15:33:07;5.70;85.40
212;DHT22;16228;48.800;9.002;2023-02-28T15:35:37;5.70;86.00
212;DHT22;16228;48.800;9.002;2023-02-28T15:38:15;5.70;86.60
212;DHT22;16228;48.800;9.002;2023-02-28T15:40:45;5.70;86.30
212;DHT22;16228;48.800;9.002;2023-02-28T15:43:24;5.70;86.60
212;DHT22;16228;48.800;9.002;2023-02-28T15:45:56;5.60;86.60
212;DHT22;16228;48.800;9.002;2023-02-28T15:48:26;5.60;86.60
212;DHT22;16228;48.800;9.002;2023-02-28T15:50:56;5.50;87.10
212;DHT22;16228;48.800;9.002;2023-02-28T15:53:27;5.50;87.40
212;DHT22;16228;48.800;9.002;2023-02-28T15:55:59;5.50;87.30
212;DHT22;16228;48.800;9.002;2023-02-28T15:58:26;5.50;87.60
212;DHT22;16228;48.800;9.002;2023-02-28T16:01:17;5.40;87.50
212;DHT22;16228;48.800;9.002;2023-02-28T16:03:47;5.40;88.40
212;DHT22;16228;48.800;9.002;2023-02-28T16:06:42;5.50;88.30
212;DHT22;16228;48.800;9.002;2023-02-28T16:09:12;5.50;88.30
212;DHT22;16228;48.800;9.002;2023-02-28T16:11:43;5.40;87.90
212;DHT22;16228;48.800;9.002;2023-02-28T16:14:16;5.40;88.50
212;DHT22;16228;48.800;9.002;2023-02-28T16:16:47;5.30;88.80
212;DHT22;16228;48.800;9.002;2023-02-28T16:19:15;5.20;88.60
212;DHT22;16228;48.800;9.002;2023-02-28T16:21:43;5.20;89.00
212;DHT22;16228;48.800;9.002;2023-02-28T16:24:13;5.10;88.80
212;DHT22;16228;48.800;9.002;2023-02-28T16:26:41;5.00;89.20
212;DHT22;16228;48.800;9.002;2023-02-28T16:29:14;4.90;89.90
212;DHT22;16228;48.800;9.002;2023-02-28T16:31:46;4.90;89.80
212;DHT22;16228;48.800;9.002;2023-02-28T16:34:13;4.80;90.20
212;DHT22;16228;48.800;9.002;2023-02-28T16:36:40;4.80;90.90
212;DHT22;16228;48.800;9.002;2023-02-28T16:39:07;4.80;90.90
212;DHT22;16228;48.800;9.002;2023-02-28T16:41:34;4.70;91.00
212;DHT22;16228;48.800;9.002;2023-02-28T16:44:02;4.60;91.00
212;DHT22;16228;48.800;9.002;2023-02-28T16:46:34;4.50;91.20
212;DHT22;16228;48.800;9.002;2023-02-28T16:49:03;4.50;91.30
212;DHT22;16228;48.800;9.002;2023-02-28T16:51:30;4.50;91.50
212;DHT22;16228;48.800;9.002;2023-02-28T16:53:57;4.40;92.20
212;DHT22;16228;48.800;9.002;2023-02-28T16:56:25;4.30;92.60